Time;durP1;ratioP1;P1;durP2;ratioP2;P2;SDS_P1;SDS_P2;PMS_P1;PMS_P2;Temp;Humidity;BMP_temperature;BMP_pressure;BME280_temperature;BME280_humidity;BME280_pressure;Samples;Min_cycle;Max_cycle;Signal;HPM_P1;HPM_P2
2022/05/17 00:00:01;;;;;;;1.92;0.80;;;14.10;99.90;;;;;;5026087;28;20175;-59
2022/05/17 00:02:27;;;;;;;1.98;0.80;;;14.10;99.90;;;;;;5043926;28;20064;-59
2022/05/17 00:04:54;;;;;;;1.42;0.60;;;14.00;99.90;;;;;;5042510;28;20145;-59
2022/05/17 00:07:21;;;;;;;1.00;0.55;;;14.00;99.90;;;;;;5045370;28;20128;-59
2022/05/17 00:09:48;;;;;;;1.80;0.60;;;14.00;99.90;;;;;;5047296;28;20048;-59
2022/05/17 00:12:14;;;;;;;1.73;0.60;;;14.00;99.90;;;;;;5047286;28;20084;-58
2022/05/17 00:14:41;;;;;;;1.02;0.60;;;14.00;99.90;;;;;;5046556;28;20163;-59
2022/05/17 00:17:09;;;;;;;1.17;0.50;;;13.90;99.90;;;;;;5047214;28;20500;-59
2022/05/17 00:19:36;;;;;;;0.93;0.60;;;13.90;99.90;;;;;;5045842;28;20512;-59
2022/05/17 00:22:02;;;;;;;0.88;0.32;;;13.90;99.90;;;;;;5012653;28;20053;-58
2022/05/17 00:24:29;;;;;;;1.15;0.70;;;13.90;99.90;;;;;;5043791;28;20053;-59
2022/05/17 00:26:56;;;;;;;1.13;0.65;;;13.90;99.90;;;;;;5044028;28;20140;-59
2022/05/17 00:29:23;;;;;;;0.88;0.50;;;13.80;99.90;;;;;;5043092;28;20120;-58
2022/05/17 00:31:49;;;;;;;1.42;1.02;;;13.80;99.90;;;;;;5044278;28;20128;-58
2022/05/17 00:34:16;;;;;;;1.98;0.70;;;13.80;99.90;;;;;;5044392;28;20049;-58
2022/05/17 00:36:43;;;;;;;1.25;0.60;;;13.80;99.90;;;;;;5033127;28;20045;-59
2022/05/17 00:39:10;;;;;;;0.40;0.40;;;13.80;99.90;;;;;;5043336;28;20053;-59
2022/05/17 00:41:36;;;;;;;1.15;0.50;;;13.70;99.90;;;;;;5043118;28;20527;-59
2022/05/17 00:47:04;;;;;;;1.52;0.68;;;13.70;99.90;;;;;;5046171;28;20129;-58
2022/05/17 00:49:39;;;;;;;1.55;0.73;;;13.70;99.90;;;;;;5027285;28;20051;-58
2022/05/17 00:52:24;;;;;;;1.15;0.52;;;13.70;99.90;;;;;;5043126;28;20084;-59
2022/05/17 00:54:51;;;;;;;1.67;0.60;;;13.70;99.90;;;;;;5042573;28;20132;-59
2022/05/17 00:57:44;;;;;;;2.85;0.75;;;13.70;99.90;;;;;;5025803;28;20081;-59
2022/05/17 01:00:12;;;;;;;2.83;0.80;;;13.70;99.90;;;;;;5037437;28;20175;-59
2022/05/17 01:02:41;;;;;;;0.98;0.50;;;13.70;99.90;;;;;;5042934;28;20048;-59
2022/05/17 01:05:08;;;;;;;1.92;0.70;;;13.70;99.90;;;;;;5023919;28;20051;-59
2022/05/17 01:07:38;;;;;;;1.30;0.68;;;13.60;99.90;;;;;;5026490;28;20079;-59
2022/05/17 01:10:06;;;;;;;0.85;0.75;;;13.60;99.90;;;;;;5028725;28;20137;-59
2022/05/17 01:12:39;;;;;;;1.42;0.50;;;13.60;99.90;;;;;;5046417;28;20136;-58
2022/05/17 01:15:06;;;;;;;1.52;0.50;;;13.60;99.90;;;;;;5045493;28;20132;-59
2022/05/17 01:17:35;;;;;;;1.08;0.70;;;13.60;99.90;;;;;;5009408;28;20132;-58
2022/05/17 01:20:04;;;;;;;0.98;0.50;;;13.50;99.90;;;;;;5021684;28;20107;-58
2022/05/17 01:22:30;;;;;;;1.20;0.60;;;13.50;99.90;;;;;;5022503;28;20160;-58
2022/05/17 01:24:57;;;;;;;0.70;0.57;;;13.50;99.90;;;;;;5031131;28;20458;-59
2022/05/17 01:27:54;;;;;;;1.30;0.47;;;13.50;99.90;;;;;;5045900;28;20102;-58
2022/05/17 01:30:23;;;;;;;0.75;0.47;;;13.40;99.90;;;;;;5025560;28;20045;-58
2022/05/17 01:32:51;;;;;;;2.15;0.60;;;13.30;99.90;;;;;;5027225;28;20119;-58
2022/05/17 01:35:18;;;;;;;1.98;0.68;;;13.30;99.90;;;;;;5042698;28;20076;-58
2022/05/17 01:37:50;;;;;;;1.10;0.60;;;13.30;99.90;;;;;;5030494;28;20049;-58
2022/05/17 01:40:16;;;;;;;0.65;0.57;;;13.20;99.90;;;;;;5010290;28;20049;-58
2022/05/17 01:42:43;;;;;;;1.60;0.57;;;13.20;99.90;;;;;;5032744;28;20136;-58
2022/05/17 01:45:11;;;;;;;0.45;0.40;;;13.10;99.90;;;;;;5045929;28;20049;-59
2022/05/17 01:47:38;;;;;;;1.52;0.60;;;13.10;99.90;;;;;;5036751;28;20095;-58
2022/05/17 01:50:05;;;;;;;1.20;0.52;;;13.00;99.90;;;;;;5026707;28;20124;-58
2022/05/17 01:52:32;;;;;;;1.63;0.50;;;13.00;99.90;;;;;;5013407;28;20156;-58
2022/05/17 01:54:58;;;;;;;0.95;0.50;;;13.00;99.90;;;;;;5045230;28;20764;-57
2022/05/17 01:57:26;;;;;;;0.93;0.60;;;13.00;99.90;;;;;;5033220;28;20076;-58
2022/05/17 01:59:52;;;;;;;1.25;0.50;;;12.90;99.90;;;;;;5045385;28;20040;-58
2022/05/17 02:02:19;;;;;;;1.25;0.57;;;12.90;99.90;;;;;;5038335;28;20136;-59
2022/05/17 02:04:46;;;;;;;1.35;0.70;;;12.90;99.90;;;;;;5044807;28;20064;-58
2022/05/17 02:07:13;;;;;;;0.60;0.50;;;12.80;99.90;;;;;;5048977;28;20049;-59
2022/05/17 02:09:40;;;;;;;1.13;0.60;;;12.80;99.90;;;;;;5052378;28;20044;-59
2022/05/17 02:12:08;;;;;;;1.70;0.70;;;12.80;99.90;;;;;;5052435;28;20641;-58
2022/05/17 02:14:34;;;;;;;1.20;0.60;;;12.80;99.90;;;;;;5042659;28;20208;-58
2022/05/17 02:17:01;;;;;;;1.55;0.60;;;12.70;99.90;;;;;;5032288;28;20091;-58
2022/05/17 02:19:29;;;;;;;1.23;0.60;;;12.70;99.90;;;;;;5013496;28;20128;-59
2022/05/17 02:21:56;;;;;;;1.63;0.73;;;12.70;99.90;;;;;;5032339;28;20095;-59
2022/05/17 02:24:23;;;;;;;1.42;0.60;;;12.60;99.90;;;;;;5049833;28;20053;-59
2022/05/17 02:26:50;;;;;;;0.75;0.40;;;12.60;99.90;;;;;;5052797;28;20123;-59
2022/05/17 02:29:16;;;;;;;1.52;0.50;;;12.50;99.90;;;;;;5051493;28;20386;-59
2022/05/17 02:31:43;;;;;;;1.10;0.52;;;12.50;99.90;;;;;;5052672;28;20059;-58
2022/05/17 02:34:10;;;;;;;1.02;0.57;;;12.50;99.90;;;;;;5050863;28;20148;-58
2022/05/17 02:36:36;;;;;;;0.90;0.43;;;12.50;99.90;;;;;;5051976;28;20128;-58
2022/05/17 02:39:03;;;;;;;1.67;0.50;;;12.50;99.90;;;;;;5052176;28;20083;-59
2022/05/17 02:41:30;;;;;;;0.40;0.40;;;12.50;99.90;;;;;;5051921;28;20061;-58
2022/05/17 02:43:56;;;;;;;1.13;0.60;;;12.40;99.90;;;;;;5051689;28;20052;-59
2022/05/17 02:46:23;;;;;;;1.25;0.57;;;12.40;99.90;;;;;;5052053;28;20128;-58
2022/05/17 02:48:50;;;;;;;1.42;0.50;;;12.40;99.90;;;;;;5050676;28;20474;-58
2022/05/17 02:51:18;;;;;;;0.60;0.40;;;12.40;99.90;;;;;;5041380;28;20064;-59
2022/05/17 02:53:44;;;;;;;1.65;0.70;;;12.30;99.90;;;;;;5043990;28;20492;-58
2022/05/17 02:56:11;;;;;;;2.58;0.55;;;12.30;99.90;;;;;;5044276;28;20056;-58
2022/05/17 02:58:38;;;;;;;0.98;0.35;;;12.30;99.90;;;;;;5031604;28;20084;-58
2022/05/17 03:01:05;;;;;;;0.73;0.40;;;12.30;99.90;;;;;;5031626;28;20089;-59
2022/05/17 03:03:35;;;;;;;1.15;0.40;;;12.30;99.90;;;;;;5042658;28;20049;-58
2022/05/17 03:06:02;;;;;;;0.70;0.50;;;12.30;99.90;;;;;;5033489;28;20449;-58
2022/05/17 03:08:29;;;;;;;1.52;0.63;;;12.30;99.90;;;;;;5052592;28;20132;-59
2022/05/17 03:10:55;;;;;;;1.27;0.70;;;12.30;99.90;;;;;;5051895;28;20660;-58
2022/05/17 03:13:22;;;;;;;1.05;0.50;;;12.30;99.90;;;;;;5033430;28;20167;-58
2022/05/17 03:15:52;;;;;;;1.10;0.50;;;12.20;99.90;;;;;;5051642;28;20133;-59
2022/05/17 03:18:19;;;;;;;1.27;0.55;;;12.20;99.90;;;;;;5049793;28;20059;-58
2022/05/17 03:20:48;;;;;;;1.25;0.57;;;12.20;99.90;;;;;;5047179;28;20092;-58
2022/05/17 03:23:15;;;;;;;2.30;1.25;;;12.20;99.90;;;;;;5048339;28;20088;-58
2022/05/17 03:25:41;;;;;;;0.75;0.47;;;12.10;99.90;;;;;;5047868;28;20120;-59
2022/05/17 03:28:10;;;;;;;1.02;0.60;;;12.10;99.90;;;;;;5049117;28;20063;-59
2022/05/17 03:30:38;;;;;;;0.73;0.50;;;12.10;99.90;;;;;;5030220;28;20081;-59
2022/05/17 03:33:05;;;;;;;0.60;0.40;;;12.10;99.90;;;;;;5048691;28;20135;-58
2022/05/17 03:35:32;;;;;;;1.05;0.50;;;12.10;99.90;;;;;;5029117;28;20567;-59
2022/05/17 03:37:59;;;;;;;1.75;0.47;;;12.00;99.90;;;;;;5048818;28;20089;-58
2022/05/17 03:40:26;;;;;;;0.73;0.40;;;12.00;99.90;;;;;;5047519;28;20087;-58
2022/05/17 03:42:52;;;;;;;0.40;0.40;;;12.00;99.90;;;;;;5048312;28;20048;-59
2022/05/17 03:45:19;;;;;;;0.75;0.40;;;12.00;99.90;;;;;;5047956;28;20049;-57
2022/05/17 03:47:47;;;;;;;0.65;0.32;;;11.90;99.90;;;;;;5048529;28;20145;-59
2022/05/17 03:50:13;;;;;;;0.82;0.40;;;11.90;99.90;;;;;;5044383;28;20135;-58
2022/05/17 03:52:40;;;;;;;2.13;0.47;;;11.90;99.90;;;;;;5030787;28;20152;-58
2022/05/17 03:55:07;;;;;;;0.85;0.50;;;11.90;99.90;;;;;;5048208;28;20084;-58
2022/05/17 03:57:34;;;;;;;1.80;0.70;;;11.80;99.90;;;;;;5031987;28;20132;-58
2022/05/17 04:00:01;;;;;;;1.05;0.60;;;11.80;99.90;;;;;;5027340;28;20057;-58
2022/05/17 04:02:27;;;;;;;1.33;0.40;;;11.70;99.90;;;;;;5010798;28;20053;-58
2022/05/17 04:04:54;;;;;;;0.75;0.40;;;11.70;99.90;;;;;;5046309;28;20091;-58
2022/05/17 04:07:21;;;;;;;1.40;0.50;;;11.70;99.90;;;;;;5047427;28;20139;-59
2022/05/17 04:09:48;;;;;;;0.52;0.40;;;11.70;99.90;;;;;;5047653;28;20443;-58
2022/05/17 04:12:15;;;;;;;1.25;0.40;;;11.70;99.90;;;;;;5030332;28;20469;-58
2022/05/17 04:14:42;;;;;;;0.68;0.40;;;11.60;99.90;;;;;;5047000;28;20144;-58
2022/05/17 04:17:09;;;;;;;1.20;0.60;;;11.60;99.90;;;;;;5047516;28;20091;-57
2022/05/17 04:19:37;;;;;;;1.02;0.60;;;11.70;99.90;;;;;;5046145;28;20080;-59
2022/05/17 04:22:08;;;;;;;0.73;0.50;;;11.70;99.90;;;;;;5047144;28;20144;-58
2022/05/17 04:24:35;;;;;;;1.25;0.52;;;11.70;99.90;;;;;;5047102;28;20349;-58
2022/05/17 04:27:01;;;;;;;0.73;0.40;;;11.80;99.90;;;;;;5047728;28;20073;-58
2022/05/17 04:29:28;;;;;;;0.55;0.50;;;11.80;99.90;;;;;;5046453;28;20075;-58
2022/05/17 04:31:55;;;;;;;0.77;0.40;;;11.80;99.90;;;;;;5047663;28;20045;-59
2022/05/17 04:34:22;;;;;;;0.47;0.30;;;11.90;99.90;;;;;;5045902;28;20040;-58
2022/05/17 04:36:48;;;;;;;1.17;0.47;;;12.00;99.90;;;;;;5047373;28;20136;-58
2022/05/17 04:39:15;;;;;;;0.73;0.52;;;12.00;99.90;;;;;;5047287;28;20061;-57
2022/05/17 04:41:43;;;;;;;1.20;0.50;;;12.10;99.90;;;;;;5029499;28;20052;-58
2022/05/17 04:44:10;;;;;;;2.15;0.70;;;12.20;99.90;;;;;;5046286;28;20645;-59
2022/05/17 04:46:36;;;;;;;1.50;0.50;;;12.30;99.90;;;;;;5047047;28;20073;-59
2022/05/17 04:49:03;;;;;;;1.08;0.52;;;12.30;99.90;;;;;;5033900;28;20511;-58
2022/05/17 04:51:32;;;;;;;0.70;0.50;;;12.30;99.90;;;;;;5025154;28;20050;-58
2022/05/17 04:53:59;;;;;;;1.02;0.45;;;12.40;99.90;;;;;;5037237;28;20077;-59
2022/05/17 04:56:27;;;;;;;1.13;0.50;;;12.50;99.90;;;;;;5044430;28;20087;-59
2022/05/17 04:58:53;;;;;;;0.38;0.38;;;12.60;99.90;;;;;;5034895;28;20124;-60
2022/05/17 05:01:21;;;;;;;0.52;0.50;;;12.70;99.90;;;;;;5044037;28;20140;-58
2022/05/17 05:03:48;;;;;;;0.85;0.47;;;12.80;99.90;;;;;;5039461;28;20680;-60
2022/05/17 05:06:15;;;;;;;0.30;0.30;;;12.80;99.90;;;;;;5035788;28;20554;-59
2022/05/17 05:08:41;;;;;;;0.45;0.40;;;12.90;99.90;;;;;;5025028;28;20120;-60
2022/05/17 05:11:10;;;;;;;0.60;0.43;;;13.10;99.90;;;;;;5033280;28;20077;-59
2022/05/17 05:13:37;;;;;;;0.82;0.43;;;13.10;99.90;;;;;;5030763;28;20132;-58
2022/05/17 05:16:11;;;;;;;0.52;0.43;;;13.20;99.90;;;;;;5032521;28;20080;-58
2022/05/17 05:18:38;;;;;;;0.57;0.40;;;13.40;99.90;;;;;;5030342;28;20052;-58
2022/05/17 05:21:11;;;;;;;0.52;0.40;;;13.40;99.90;;;;;;5031239;28;20204;-59
2022/05/17 05:23:39;;;;;;;;;;;13.50;99.90;;;;;;5035370;28;20051;-58
2022/05/17 05:26:06;;;;;;;0.63;0.50;;;13.60;99.90;;;;;;5035097;28;19931;-59
2022/05/17 05:28:33;;;;;;;0.52;0.40;;;13.70;99.90;;;;;;5004328;28;20085;-59
2022/05/17 05:31:00;;;;;;;0.88;0.40;;;13.80;99.90;;;;;;5022745;28;20051;-57
2022/05/17 05:33:29;;;;;;;0.95;0.43;;;13.90;99.90;;;;;;5035031;28;20473;-58
2022/05/17 05:35:56;;;;;;;0.73;0.50;;;14.00;99.90;;;;;;5038044;28;20060;-59
2022/05/17 05:38:23;;;;;;;0.73;0.40;;;14.10;99.90;;;;;;5037184;28;20456;-58
2022/05/17 05:40:53;;;;;;;1.15;0.50;;;14.20;99.90;;;;;;5026160;28;20061;-58
2022/05/17 05:43:20;;;;;;;1.05;0.30;;;14.30;99.90;;;;;;5037926;28;20040;-59
2022/05/17 05:45:47;;;;;;;0.35;0.35;;;14.40;99.90;;;;;;5012814;28;20426;-58
2022/05/17 05:48:13;;;;;;;1.15;0.50;;;14.50;99.90;;;;;;5023479;28;20126;-59
2022/05/17 05:50:40;;;;;;;0.70;0.40;;;14.60;99.90;;;;;;5029373;28;20072;-59
2022/05/17 05:53:09;;;;;;;0.40;0.30;;;14.70;99.90;;;;;;5034659;28;20140;-60
2022/05/17 05:55:37;;;;;;;0.52;0.32;;;14.80;99.90;;;;;;5031027;28;20160;-60
2022/05/17 05:58:05;;;;;;;0.90;0.50;;;14.90;99.90;;;;;;5039046;28;20129;-60
2022/05/17 06:00:32;;;;;;;0.20;0.20;;;14.90;99.90;;;;;;5033162;28;20231;-60
2022/05/17 06:02:59;;;;;;;0.30;0.30;;;15.00;99.90;;;;;;5026954;28;20100;-61
2022/05/17 06:05:26;;;;;;;1.75;0.50;;;15.10;99.90;;;;;;5028443;28;20063;-60
2022/05/17 06:07:53;;;;;;;1.02;0.40;;;15.20;99.90;;;;;;5016348;28;20407;-61
2022/05/17 06:10:20;;;;;;;0.38;0.38;;;15.30;99.90;;;;;;5035399;28;20552;-61
2022/05/17 06:12:47;;;;;;;0.80;0.73;;;15.30;99.90;;;;;;5036258;28;20453;-61
2022/05/17 06:15:14;;;;;;;0.68;0.30;;;15.40;99.90;;;;;;5020610;28;20124;-60
2022/05/17 06:17:47;;;;;;;0.22;0.22;;;15.40;99.90;;;;;;5033277;28;20042;-60
2022/05/17 06:20:17;;;;;;;0.70;0.38;;;15.40;99.90;;;;;;5034836;28;20517;-60
2022/05/17 06:22:43;;;;;;;1.00;0.32;;;15.50;99.90;;;;;;5026148;28;20160;-61
2022/05/17 06:25:11;;;;;;;1.27;0.45;;;15.50;99.90;;;;;;5034315;28;20424;-61
2022/05/17 06:27:38;;;;;;;0.47;0.25;;;15.50;99.90;;;;;;5017481;28;20156;-61
2022/05/17 06:30:05;;;;;;;0.65;0.35;;;15.60;99.90;;;;;;5029605;28;20680;-61
2022/05/17 06:32:32;;;;;;;0.60;0.30;;;15.60;99.90;;;;;;5025237;28;20067;-61
2022/05/17 06:34:58;;;;;;;0.65;0.50;;;15.70;99.90;;;;;;5029227;28;20116;-61
2022/05/17 06:37:28;;;;;;;0.45;0.30;;;15.70;99.90;;;;;;5020769;28;20143;-61
2022/05/17 06:39:55;;;;;;;0.77;0.50;;;15.70;99.90;;;;;;5026999;28;20809;-60
2022/05/17 06:42:22;;;;;;;0.55;0.30;;;15.80;99.90;;;;;;5024055;28;20134;-60
2022/05/17 06:44:49;;;;;;;0.43;0.35;;;15.90;99.90;;;;;;5009844;28;20058;-60
2022/05/17 06:47:16;;;;;;;0.75;0.47;;;15.90;99.90;;;;;;5027019;28;20412;-60
2022/05/17 06:49:43;;;;;;;0.35;0.28;;;16.00;99.90;;;;;;5031404;28;20510;-60
2022/05/17 06:52:09;;;;;;;0.70;0.40;;;16.10;99.90;;;;;;5041356;28;20049;-60
2022/05/17 06:54:43;;;;;;;0.75;0.30;;;16.20;99.90;;;;;;5045009;28;20055;-60
2022/05/17 06:57:11;;;;;;;0.28;0.20;;;16.30;99.90;;;;;;5028746;28;20567;-60
2022/05/17 06:59:39;;;;;;;0.30;0.30;;;16.40;99.90;;;;;;5045744;28;20076;-60
2022/05/17 07:02:06;;;;;;;0.32;0.32;;;16.50;99.90;;;;;;5042506;28;20060;-60
2022/05/17 07:04:33;;;;;;;1.15;0.50;;;16.70;99.90;;;;;;5030926;28;20056;-60
2022/05/17 07:07:00;;;;;;;0.63;0.32;;;16.90;99.90;;;;;;5032431;28;20128;-61
2022/05/17 07:09:27;;;;;;;0.30;0.30;;;17.10;99.90;;;;;;5043768;28;20658;-60
2022/05/17 07:14:39;;;;;;;0.60;0.52;;;17.50;99.90;;;;;;5039833;28;20494;-60
2022/05/17 07:17:26;;;;;;;0.50;0.40;;;17.70;99.90;;;;;;5024455;28;20083;-61
2022/05/17 07:19:53;;;;;;;0.88;0.47;;;17.80;99.90;;;;;;5032021;28;20073;-61
2022/05/17 07:22:20;;;;;;;0.40;0.40;;;18.00;99.90;;;;;;5033959;28;20089;-61
2022/05/17 07:24:46;;;;;;;1.30;0.60;;;18.00;99.90;;;;;;5037754;28;20048;-61
2022/05/17 07:27:13;;;;;;;0.47;0.35;;;18.10;99.90;;;;;;5030890;28;20041;-60
2022/05/17 07:29:47;;;;;;;1.58;0.52;;;18.30;99.90;;;;;;5036717;28;20136;-60
2022/05/17 07:32:13;;;;;;;0.25;0.25;;;18.40;99.90;;;;;;5036939;28;20037;-61
2022/05/17 07:34:41;;;;;;;0.73;0.50;;;18.50;99.90;;;;;;5043454;28;20076;-60
2022/05/17 07:37:08;;;;;;;0.73;0.40;;;18.50;99.90;;;;;;5045058;28;20045;-60
2022/05/17 07:39:35;;;;;;;0.85;0.50;;;18.60;99.90;;;;;;5024171;28;20083;-59
2022/05/17 07:42:04;;;;;;;0.65;0.35;;;18.60;99.90;;;;;;5044148;28;20057;-61
2022/05/17 07:44:31;;;;;;;1.00;0.60;;;18.70;99.90;;;;;;5027801;28;20577;-60
2022/05/17 07:46:58;;;;;;;0.60;0.47;;;18.60;99.90;;;;;;5032641;28;20119;-60
2022/05/17 07:49:25;;;;;;;0.82;0.43;;;18.50;99.90;;;;;;5031173;28;20124;-60
2022/05/17 07:51:52;;;;;;;1.25;0.47;;;18.50;99.90;;;;;;5038181;28;20076;-60
2022/05/17 07:54:19;;;;;;;1.00;0.63;;;18.40;99.90;;;;;;5045172;28;20049;-60
2022/05/17 07:56:46;;;;;;;0.65;0.32;;;18.40;99.90;;;;;;5028937;28;20094;-59
2022/05/17 07:59:12;;;;;;;1.05;0.60;;;18.50;99.90;;;;;;5046349;28;20464;-60
2022/05/17 08:01:39;;;;;;;0.52;0.35;;;18.60;99.90;;;;;;5046242;28;20049;-60
2022/05/17 08:04:07;;;;;;;0.80;0.45;;;18.70;99.90;;;;;;5044682;28;20052;-60
2022/05/17 08:06:35;;;;;;;0.60;0.60;;;18.80;99.90;;;;;;5046251;28;20416;-60
2022/05/17 08:09:03;;;;;;;0.52;0.52;;;18.90;99.90;;;;;;5046314;28;20095;-60
2022/05/17 08:11:29;;;;;;;0.80;0.50;;;19.00;99.90;;;;;;5046195;28;20515;-60
2022/05/17 08:13:56;;;;;;;0.55;0.40;;;18.90;99.90;;;;;;5046007;28;20080;-60
2022/05/17 08:16:38;;;;;;;0.93;0.35;;;18.90;99.90;;;;;;5046840;28;20049;-61
2022/05/17 08:19:05;;;;;;;1.35;0.50;;;18.80;99.90;;;;;;5044417;28;20047;-60
2022/05/17 08:21:32;;;;;;;0.77;0.40;;;18.80;99.90;;;;;;5039899;28;20331;-60
2022/05/17 08:23:58;;;;;;;1.35;0.40;;;18.80;99.90;;;;;;5032560;28;20084;-58
2022/05/17 08:29:11;;;;;;;0.30;0.28;;;18.80;99.90;;;;;;5042316;28;20049;-58
2022/05/17 08:31:38;;;;;;;0.77;0.40;;;18.80;99.90;;;;;;5041384;28;20124;-59
2022/05/17 08:34:08;;;;;;;0.73;0.40;;;19.00;99.90;;;;;;5042404;28;20085;-58
2022/05/17 08:36:34;;;;;;;0.98;0.70;;;19.00;99.90;;;;;;5045422;28;20061;-58
2022/05/17 08:39:01;;;;;;;1.25;0.65;;;19.10;99.90;;;;;;5045155;28;20144;-58
2022/05/17 08:41:52;;;;;;;1.23;0.75;;;19.20;99.90;;;;;;5045269;28;20061;-59
2022/05/17 08:44:21;;;;;;;1.55;0.50;;;19.30;99.90;;;;;;5010156;28;20045;-58
2022/05/17 08:47:11;;;;;;;1.95;0.70;;;19.30;99.90;;;;;;4997889;28;20149;-59
2022/05/17 08:50:18;;;;;;;0.43;0.40;;;19.30;99.90;;;;;;5009707;28;20048;-58
2022/05/17 08:52:46;;;;;;;1.05;0.55;;;19.40;99.90;;;;;;5037933;28;20055;-58
2022/05/17 08:55:25;;;;;;;1.25;0.93;;;19.50;99.90;;;;;;5041189;28;20148;-58
2022/05/17 08:58:02;;;;;;;1.33;0.50;;;19.50;99.90;;;;;;5023857;28;20132;-58
2022/05/17 09:00:43;;;;;;;1.02;0.70;;;19.60;99.90;;;;;;5038988;28;20125;-60
2022/05/17 09:03:16;;;;;;;1.40;0.63;;;19.80;99.90;;;;;;5039790;28;20076;-59
2022/05/17 09:05:49;;;;;;;1.23;0.60;;;19.90;99.90;;;;;;5036280;28;20060;-59
2022/05/17 09:08:38;;;;;;;1.38;0.70;;;20.10;99.90;;;;;;5025633;28;20126;-59
2022/05/17 09:11:07;;;;;;;1.58;0.70;;;20.10;99.90;;;;;;5017654;28;20515;-58
2022/05/17 09:13:43;;;;;;;1.92;0.57;;;20.30;99.90;;;;;;5034201;28;20171;-57
2022/05/17 09:16:33;;;;;;;0.40;0.30;;;20.40;99.90;;;;;;5036399;28;20045;-59
2022/05/17 09:19:00;;;;;;;1.38;0.50;;;20.50;99.90;;;;;;5022505;28;20372;-61
2022/05/17 09:21:31;;;;;;;0.75;0.38;;;20.60;99.90;;;;;;5043333;28;20049;-59
2022/05/17 09:23:59;;;;;;;0.52;0.35;;;20.60;99.90;;;;;;5038884;28;20044;-58
2022/05/17 09:26:26;;;;;;;1.30;0.50;;;20.70;99.90;;;;;;5040882;28;20135;-58
2022/05/17 09:29:18;;;;;;;0.45;0.40;;;20.70;99.90;;;;;;5007710;28;20048;-57
2022/05/17 09:31:59;;;;;;;1.27;0.60;;;20.70;99.90;;;;;;5030327;28;20164;-58
2022/05/17 09:34:29;;;;;;;;;;;20.80;99.90;;;;;;5024389;28;20171;-58
2022/05/17 09:36:57;;;;;;;0.82;0.47;;;21.00;99.90;;;;;;5036587;28;20015;-59
2022/05/17 09:39:26;;;;;;;1.08;0.55;;;21.10;99.90;;;;;;5014259;28;20127;-60
2022/05/17 09:41:56;;;;;;;1.45;0.55;;;21.20;99.90;;;;;;5022292;28;20454;-59
2022/05/17 09:44:40;;;;;;;1.58;0.63;;;21.20;99.90;;;;;;5013652;28;20055;-60
2022/05/17 09:47:07;;;;;;;0.60;0.40;;;21.20;99.90;;;;;;5033002;28;20136;-60
2022/05/17 09:52:32;;;;;;;0.98;0.60;;;21.30;99.90;;;;;;5009276;28;20068;-60
2022/05/17 09:55:14;;;;;;;0.43;0.40;;;21.40;99.90;;;;;;5041734;28;20132;-59
2022/05/17 09:58:12;;;;;;;0.80;0.60;;;21.50;99.90;;;;;;5043751;28;20140;-60
2022/05/17 10:00:49;;;;;;;0.40;0.40;;;21.50;99.90;;;;;;5042931;28;20368;-59
2022/05/17 10:03:19;;;;;;;1.60;0.60;;;21.60;99.90;;;;;;5036977;28;20447;-60
2022/05/17 10:06:08;;;;;;;1.13;0.70;;;21.70;99.90;;;;;;5024197;28;20049;-60
2022/05/17 10:08:41;;;;;;;1.60;0.50;;;21.80;99.90;;;;;;5032248;28;20390;-63
2022/05/17 10:11:21;;;;;;;0.93;0.57;;;21.90;99.90;;;;;;5027321;28;20057;-60
2022/05/17 10:14:12;;;;;;;0.43;0.40;;;21.90;99.90;;;;;;5044072;28;20404;-60
2022/05/17 10:16:39;;;;;;;1.15;0.60;;;22.00;99.90;;;;;;5023266;28;20048;-60
2022/05/17 10:19:26;;;;;;;0.93;0.50;;;22.10;99.90;;;;;;5042356;28;20052;-60
2022/05/17 10:22:01;;;;;;;0.63;0.45;;;22.30;99.90;;;;;;5006309;28;20144;-60
2022/05/17 10:24:57;;;;;;;1.92;0.77;;;22.30;99.90;;;;;;5036040;28;20407;-59
2022/05/17 10:27:38;;;;;;;0.82;0.50;;;22.40;99.90;;;;;;5022115;28;20079;-59
2022/05/17 10:30:24;;;;;;;0.80;0.60;;;22.60;99.90;;;;;;5007087;28;20133;-59
2022/05/17 10:33:01;;;;;;;1.17;0.70;;;22.60;99.90;;;;;;5029961;28;20129;-59
2022/05/17 10:35:40;;;;;;;1.02;0.50;;;22.80;99.90;;;;;;5024682;28;20136;-60
2022/05/17 10:38:11;;;;;;;2.22;0.52;;;22.90;99.90;;;;;;5043253;28;20133;-60
2022/05/17 10:40:43;;;;;;;0.50;0.30;;;23.20;99.90;;;;;;5040437;28;20052;-59
2022/05/17 10:43:21;;;;;;;0.85;0.52;;;23.40;99.90;;;;;;5040809;28;20052;-59
2022/05/17 10:46:00;;;;;;;1.10;0.57;;;23.50;99.30;;;;;;5027388;28;20126;-58
2022/05/17 10:48:34;;;;;;;0.90;0.38;;;23.30;98.60;;;;;;5026529;28;20107;-59
2022/05/17 10:51:03;;;;;;;1.08;0.55;;;23.30;99.90;;;;;;5041456;28;20139;-59
2022/05/17 10:53:39;;;;;;;1.08;0.50;;;23.20;99.90;;;;;;5043757;28;20211;-59
2022/05/17 10:56:30;;;;;;;0.75;0.45;;;23.10;99.20;;;;;;5022809;28;20045;-58
2022/05/17 10:59:23;;;;;;;0.93;0.35;;;23.00;99.20;;;;;;5030632;28;20057;-59
2022/05/17 11:02:08;;;;;;;2.17;0.40;;;23.00;99.90;;;;;;5014366;28;20468;-59
2022/05/17 11:05:01;;;;;;;1.52;0.68;;;23.10;99.90;;;;;;5022735;28;20079;-59
2022/05/17 11:07:58;;;;;;;0.80;0.40;;;23.20;99.90;;;;;;5022205;28;20057;-59
2022/05/17 11:10:31;;;;;;;1.13;0.50;;;23.20;99.20;;;;;;5027495;28;20049;-59
2022/05/17 11:13:08;;;;;;;0.80;0.30;;;23.20;99.90;;;;;;5026491;28;20630;-59
2022/05/17 11:15:40;;;;;;;0.50;0.32;;;23.30;99.90;;;;;;5026179;28;20603;-59
2022/05/17 11:18:19;;;;;;;0.30;0.30;;;23.60;99.90;;;;;;5026849;28;20386;-58
2022/05/17 11:21:03;;;;;;;0.45;0.28;;;23.90;99.90;;;;;;5023365;28;20207;-59
2022/05/17 11:23:54;;;;;;;0.28;0.20;;;24.20;99.90;;;;;;5024546;28;20588;-59
2022/05/17 11:26:33;;;;;;;1.10;0.40;;;24.40;99.20;;;;;;5023091;28;20057;-59
2022/05/17 11:29:16;;;;;;;0.75;0.35;;;24.70;98.50;;;;;;5023662;28;20456;-59
2022/05/17 11:32:00;;;;;;;1.00;0.40;;;25.10;98.50;;;;;;5026023;28;20095;-60
2022/05/17 11:34:31;;;;;;;0.28;0.28;;;25.40;97.40;;;;;;5026206;28;20132;-60
2022/05/17 11:37:02;;;;;;;0.40;0.30;;;25.50;98.00;;;;;;5027303;28;20041;-60
2022/05/17 11:39:35;;;;;;;0.37;0.37;;;25.70;97.30;;;;;;5026022;28;20217;-59
2022/05/17 11:42:20;;;;;;;0.60;0.47;;;25.90;96.10;;;;;;5028032;28;20934;-60
2022/05/17 11:44:48;;;;;;;1.02;0.50;;;26.10;95.70;;;;;;5024101;28;20057;-59
2022/05/17 11:47:56;;;;;;;0.30;0.30;;;26.30;95.30;;;;;;5026210;28;20623;-59
2022/05/17 11:50:52;;;;;;;0.63;0.30;;;26.60;94.90;;;;;;4999316;28;20956;-59
2022/05/17 11:53:45;;;;;;;1.52;0.68;;;27.00;94.30;;;;;;4998066;28;20125;-59
2022/05/17 11:56:18;;;;;;;0.90;0.55;;;26.80;93.70;;;;;;5020350;28;20369;-59
2022/05/17 11:58:49;;;;;;;0.82;0.47;;;26.80;92.80;;;;;;5014688;28;20050;-59
2022/05/17 12:01:29;;;;;;;1.00;0.55;;;27.00;94.10;;;;;;5024600;28;20088;-60
2022/05/17 12:03:56;;;;;;;0.68;0.40;;;27.30;93.30;;;;;;5036147;28;20141;-59
2022/05/17 12:06:38;;;;;;;1.17;0.50;;;27.50;92.00;;;;;;5026013;28;20053;-60
2022/05/17 12:09:20;;;;;;;0.82;0.45;;;28.00;92.80;;;;;;5023165;28;20056;-60
2022/05/17 12:12:27;;;;;;;0.65;0.60;;;28.50;91.50;;;;;;5044390;28;20053;-60
2022/05/17 12:15:17;;;;;;;1.08;0.55;;;28.80;91.40;;;;;;5001139;28;20521;-59
2022/05/17 12:18:07;;;;;;;1.25;0.50;;;29.30;90.60;;;;;;5013502;28;20637;-60
2022/05/17 12:20:40;;;;;;;0.80;0.50;;;29.40;87.90;;;;;;5004858;28;20109;-61
2022/05/17 12:23:45;;;;;;;0.38;0.30;;;29.30;87.00;;;;;;5015920;28;20159;-58
2022/05/17 12:27:04;;;;;;;0.30;0.30;;;29.70;87.90;;;;;;5024193;28;20141;-59
2022/05/17 12:32:18;;;;;;;0.90;0.43;;;30.80;86.40;;;;;;5026812;28;20104;-57
2022/05/17 12:34:51;;;;;;;0.68;0.40;;;30.90;82.20;;;;;;5044962;28;20417;-60
2022/05/17 12:37:17;;;;;;;;;;;31.20;79.60;;;;;;5046775;28;20055;-56
2022/05/17 12:45:23;;;;;;;0.60;0.50;;;32.30;80.20;;;;;;5037157;28;20076;-61
2022/05/17 12:47:51;;;;;;;;;;;32.50;76.30;;;;;;5028770;28;20102;-63
2022/05/17 12:50:30;;;;;;;0.77;0.52;;;32.20;74.70;;;;;;5026337;28;20379;-62
2022/05/17 12:52:57;;;;;;;0.28;0.25;;;32.20;77.50;;;;;;5028435;28;20499;-62
2022/05/17 12:55:28;;;;;;;0.47;0.40;;;32.10;75.90;;;;;;5027623;28;20052;-62
2022/05/17 12:57:55;;;;;;;0.82;0.30;;;31.80;74.90;;;;;;5046217;28;20041;-62
2022/05/17 13:00:28;;;;;;;1.90;0.90;;;31.70;75.00;;;;;;5024759;28;20092;-62
2022/05/17 13:02:58;;;;;;;0.50;0.30;;;31.40;72.80;;;;;;5042822;28;20089;-62
2022/05/17 13:05:43;;;;;;;0.30;0.30;;;31.40;74.50;;;;;;5026480;28;20074;-62
2022/05/17 13:08:15;;;;;;;0.57;0.30;;;31.40;75.40;;;;;;5032026;28;20132;-62
2022/05/17 13:10:43;;;;;;;;;;;31.40;76.10;;;;;;5024422;28;20053;-62
2022/05/17 13:13:17;;;;;;;0.93;0.50;;;31.30;73.50;;;;;;5028784;28;20002;-62
2022/05/17 13:15:49;;;;;;;1.63;0.70;;;31.10;73.20;;;;;;5028938;28;20160;-63
2022/05/17 13:18:16;;;;;;;0.65;0.40;;;30.80;73.90;;;;;;4994271;28;20706;-62
2022/05/17 13:20:48;;;;;;;0.60;0.30;;;31.00;73.90;;;;;;4998837;28;20063;-63
2022/05/17 13:23:16;;;;;;;0.47;0.30;;;30.90;72.00;;;;;;5022939;28;20103;-62
2022/05/17 13:25:44;;;;;;;1.05;0.38;;;30.80;70.90;;;;;;5022767;28;20149;-63
2022/05/17 13:28:10;;;;;;;0.68;0.38;;;30.80;73.30;;;;;;5022495;28;20163;-62